Time;durP1;ratioP1;P1;durP2;ratioP2;P2;SDS_P1;SDS_P2;PMS_P1;PMS_P2;Temp;Humidity;BMP_temperature;BMP_pressure;BME280_temperature;BME280_humidity;BME280_pressure;Samples;Min_cycle;Max_cycle;Signal;HPM_P1;HPM_P2
2022/07/31 00:00:34;;;;;;;;;;;;;;;19.29;60.11;101332.75;5010097;28;20007;-78
2022/07/31 00:02:59;;;;;;;;;;;;;;;19.22;60.23;101337.44;5031397;28;19999;-77
2022/07/31 00:05:25;;;;;;;;;;;;;;;19.19;60.07;101334.13;5047929;28;20335;-78
2022/07/31 00:07:52;;;;;;;;;;;;;;;19.17;59.80;101326.28;5028207;28;19925;-77
2022/07/31 00:10:17;;;;;;;;;;;;;;;19.15;60.67;101329.91;5038772;28;20026;-77
2022/07/31 00:12:42;;;;;;;;;;;;;;;19.09;60.78;101331.06;5035158;28;20498;-77
2022/07/31 00:15:14;;;;;;;;;;;;;;;19.08;60.76;101331.09;5028984;28;20042;-77
2022/07/31 00:17:40;;;;;;;;;;;;;;;19.05;60.55;101320.72;5021510;28;19991;-77
2022/07/31 00:20:06;;;;;;;;;;;;;;;19.01;60.72;101327.94;5029383;28;19925;-78
2022/07/31 00:22:31;;;;;;;;;;;;;;;19.00;61.01;101330.63;5029748;28;19979;-77
2022/07/31 00:24:56;;;;;;;;;;;;;;;18.97;60.69;101323.72;5049959;28;19975;-78
2022/07/31 00:27:22;;;;;;;;;;;;;;;18.97;60.67;101321.09;5032232;28;19971;-77
2022/07/31 00:29:48;;;;;;;;;;;;;;;18.99;60.31;101318.38;5032307;28;19917;-77
2022/07/31 00:32:13;;;;;;;;;;;;;;;18.96;60.78;101324.66;5039931;28;19931;-77
2022/07/31 00:34:38;;;;;;;;;;;;;;;18.94;60.84;101326.50;5034970;28;19925;-77
2022/07/31 00:37:03;;;;;;;;;;;;;;;18.95;60.30;101317.69;5035950;28;19921;-77
2022/07/31 00:39:29;;;;;;;;;;;;;;;18.95;60.80;101322.97;5035075;28;19929;-78
2022/07/31 00:41:55;;;;;;;;;;;;;;;18.96;59.90;101313.25;5038205;28;20537;-76
2022/07/31 00:44:20;;;;;;;;;;;;;;;18.95;60.18;101307.16;5030368;28;19956;-77
2022/07/31 00:46:46;;;;;;;;;;;;;;;18.95;60.72;101309.78;5027650;28;19936;-77
2022/07/31 00:49:11;;;;;;;;;;;;;;;18.96;61.17;101308.84;5032024;28;19921;-77
2022/07/31 00:51:37;;;;;;;;;;;;;;;18.91;61.34;101302.09;5029331;28;21164;-77
2022/07/31 00:54:02;;;;;;;;;;;;;;;18.90;61.30;101303.88;5032652;28;19971;-77
2022/07/31 00:56:28;;;;;;;;;;;;;;;18.89;61.28;101288.16;5033857;28;20416;-77
2022/07/31 00:58:56;;;;;;;;;;;;;;;18.91;60.98;101288.94;5030279;28;19940;-77
2022/07/31 01:01:22;;;;;;;;;;;;;;;18.91;61.01;101296.84;5027231;28;19972;-77
2022/07/31 01:03:48;;;;;;;;;;;;;;;18.88;61.77;101289.94;5032229;28;19921;-78
2022/07/31 01:06:14;;;;;;;;;;;;;;;18.90;62.31;101288.06;5033744;28;19921;-78
2022/07/31 01:08:39;;;;;;;;;;;;;;;18.91;62.50;101286.31;5014688;28;19948;-77
2022/07/31 01:11:12;;;;;;;;;;;;;;;18.87;63.00;101293.47;5036743;28;20019;-77
2022/07/31 01:13:52;;;;;;;;;;;;;;;18.87;63.40;101290.03;5032491;28;19929;-77
2022/07/31 01:16:18;;;;;;;;;;;;;;;18.85;63.44;101287.44;5037907;28;19975;-77
2022/07/31 01:18:45;;;;;;;;;;;;;;;18.84;63.42;101283.09;5037545;28;19968;-78
2022/07/31 01:21:14;;;;;;;;;;;;;;;18.86;63.40;101288.31;5034175;28;19925;-77
2022/07/31 01:23:59;;;;;;;;;;;;;;;18.85;62.93;101276.91;5038149;28;20005;-76
2022/07/31 01:26:30;;;;;;;;;;;;;;;18.81;63.45;101282.41;5031584;28;19924;-77
2022/07/31 01:29:14;;;;;;;;;;;;;;;18.79;63.24;101279.84;5026003;28;19929;-77
2022/07/31 01:31:52;;;;;;;;;;;;;;;18.81;63.05;101277.97;5031112;28;20393;-77
2022/07/31 01:34:32;;;;;;;;;;;;;;;18.78;62.98;101283.38;5031515;28;19929;-77
2022/07/31 01:37:01;;;;;;;;;;;;;;;18.78;62.99;101280.75;5038573;28;19931;-78
2022/07/31 01:39:29;;;;;;;;;;;;;;;18.76;62.59;101279.13;5035149;28;19917;-78
2022/07/31 01:41:56;;;;;;;;;;;;;;;18.75;62.79;101277.44;5037808;28;19948;-77
2022/07/31 01:44:22;;;;;;;;;;;;;;;18.72;62.26;101270.50;5029148;28;19921;-77
2022/07/31 01:46:48;;;;;;;;;;;;;;;18.74;61.37;101267.81;5027001;28;19966;-77
2022/07/31 01:49:14;;;;;;;;;;;;;;;18.74;61.79;101266.06;5028327;28;19921;-77
2022/07/31 01:51:42;;;;;;;;;;;;;;;18.69;61.90;101268.00;5030013;28;20004;-78
2022/07/31 01:54:09;;;;;;;;;;;;;;;18.69;62.03;101260.13;5027301;28;20005;-78
2022/07/31 01:56:35;;;;;;;;;;;;;;;18.70;62.21;101275.00;5028560;28;19920;-77
2022/07/31 01:59:01;;;;;;;;;;;;;;;18.68;62.31;101269.81;5028983;28;20024;-78
2022/07/31 02:01:27;;;;;;;;;;;;;;;18.69;62.15;101268.88;5029367;28;20036;-77
2022/07/31 02:03:53;;;;;;;;;;;;;;;18.68;61.72;101263.69;5013838;28;19929;-77
2022/07/31 02:06:20;;;;;;;;;;;;;;;18.64;61.58;101262.97;5046887;28;19983;-78
2022/07/31 02:08:46;;;;;;;;;;;;;;;18.67;61.23;101270.75;5046526;28;19968;-77
2022/07/31 02:11:12;;;;;;;;;;;;;;;18.66;61.71;101278.69;5030346;28;20301;-77
2022/07/31 02:13:38;;;;;;;;;;;;;;;18.63;61.28;101269.16;5035408;28;20394;-77
2022/07/31 02:16:04;;;;;;;;;;;;;;;18.61;61.40;101273.66;5027924;28;19975;-77
2022/07/31 02:18:31;;;;;;;;;;;;;;;18.66;60.91;101273.41;5032837;28;19917;-78
2022/07/31 02:20:56;;;;;;;;;;;;;;;18.62;61.08;101269.25;5030478;28;19921;-77
2022/07/31 02:23:22;;;;;;;;;;;;;;;18.61;60.54;101270.16;5032994;28;19939;-77
2022/07/31 02:25:47;;;;;;;;;;;;;;;18.65;60.63;101275.22;5029949;28;19929;-77
2022/07/31 02:28:14;;;;;;;;;;;;;;;18.64;61.06;101267.38;5027964;28;20436;-77
2022/07/31 02:30:42;;;;;;;;;;;;;;;18.64;60.01;101267.38;5025395;28;19979;-77
2022/07/31 02:33:09;;;;;;;;;;;;;;;18.62;60.87;101266.63;5033721;28;19921;-77
2022/07/31 02:35:34;;;;;;;;;;;;;;;18.59;60.66;101267.63;5034978;28;20313;-77
2022/07/31 02:38:01;;;;;;;;;;;;;;;18.58;60.59;101263.28;5031722;28;19925;-77
2022/07/31 02:40:26;;;;;;;;;;;;;;;18.59;60.55;101261.50;5050849;28;19931;-77
2022/07/31 02:42:52;;;;;;;;;;;;;;;18.56;60.23;101262.50;5029533;28;20297;-77
2022/07/31 02:45:19;;;;;;;;;;;;;;;18.56;59.88;101264.28;5027403;28;20582;-78
2022/07/31 02:47:44;;;;;;;;;;;;;;;18.54;60.29;101266.13;5023598;28;19929;-77
2022/07/31 02:50:11;;;;;;;;;;;;;;;18.55;59.74;101257.28;5024666;28;19929;-77
2022/07/31 02:52:37;;;;;;;;;;;;;;;18.57;59.66;101255.47;5031092;28;19933;-77
2022/07/31 02:55:03;;;;;;;;;;;;;;;18.54;59.88;101253.78;5029542;28;20364;-77
2022/07/31 02:57:29;;;;;;;;;;;;;;;18.55;59.62;101250.25;5023233;28;19972;-78
2022/07/31 02:59:54;;;;;;;;;;;;;;;18.55;59.53;101252.88;5030476;28;19964;-77
2022/07/31 03:02:20;;;;;;;;;;;;;;;18.56;60.01;101251.13;5026626;28;19928;-77
2022/07/31 03:04:45;;;;;;;;;;;;;;;18.59;60.00;101254.47;5031712;28;19925;-77
2022/07/31 03:07:10;;;;;;;;;;;;;;;18.58;60.08;101252.75;5032137;28;19940;-77
2022/07/31 03:09:36;;;;;;;;;;;;;;;18.58;60.67;101259.78;5033699;28;19921;-77
2022/07/31 03:12:01;;;;;;;;;;;;;;;18.58;60.08;101252.75;5048863;28;19951;-77
2022/07/31 03:14:27;;;;;;;;;;;;;;;18.56;60.67;101251.13;5027457;28;19997;-77
2022/07/31 03:16:53;;;;;;;;;;;;;;;18.55;60.32;101250.25;5008325;28;20444;-77
2022/07/31 03:19:22;;;;;;;;;;;;;;;18.55;60.63;101241.50;5031773;28;19932;-78
2022/07/31 03:21:48;;;;;;;;;;;;;;;18.52;60.26;101250.41;5043937;28;19921;-77
2022/07/31 03:24:13;;;;;;;;;;;;;;;18.54;60.07;101240.66;5028554;28;19932;-78
2022/07/31 03:26:39;;;;;;;;;;;;;;;18.55;60.09;101249.41;5034252;28;19925;-78
2022/07/31 03:29:04;;;;;;;;;;;;;;;18.52;60.90;101250.41;5007559;28;20370;-78
2022/07/31 03:31:29;;;;;;;;;;;;;;;18.47;59.08;101269.94;5025708;28;19925;-77
2022/07/31 03:33:55;;;;;;;;;;;;;;;18.50;59.17;101273.31;5030037;28;19929;-78
2022/07/31 03:36:21;;;;;;;;;;;;;;;18.55;58.85;101266.03;5024938;28;19917;-78
2022/07/31 03:38:46;;;;;;;;;;;;;;;18.53;58.85;101275.78;5013642;28;19932;-78
2022/07/31 03:41:11;;;;;;;;;;;;;;;18.57;59.15;101271.25;5030863;28;19992;-77
2022/07/31 03:43:37;;;;;;;;;;;;;;;18.63;58.74;101278.81;5030792;28;19929;-77
2022/07/31 03:46:04;;;;;;;;;;;;;;;18.59;59.33;101267.63;5023193;28;20722;-78
2022/07/31 03:48:30;;;;;;;;;;;;;;;18.60;59.98;101263.22;5026579;28;19924;-78
2022/07/31 03:50:56;;;;;;;;;;;;;;;18.64;60.01;101265.63;5025063;28;19921;-77
2022/07/31 03:53:22;;;;;;;;;;;;;;;18.61;60.82;101270.16;5024016;28;19936;-77
2022/07/31 03:55:47;;;;;;;;;;;;;;;18.59;61.26;101264.97;5024004;28;19921;-77
2022/07/31 03:58:13;;;;;;;;;;;;;;;18.58;61.97;101265.03;5025015;28;19925;-78
2022/07/31 04:00:39;;;;;;;;;;;;;;;18.59;62.10;101264.13;5024924;28;19925;-77
2022/07/31 04:03:06;;;;;;;;;;;;;;;18.53;62.39;101265.28;5027659;28;20635;-77
2022/07/31 04:05:31;;;;;;;;;;;;;;;18.54;62.29;101260.88;5036605;28;19932;-78
2022/07/31 04:07:57;;;;;;;;;;;;;;;18.51;62.47;101258.38;5027624;28;19925;-78
2022/07/31 04:10:22;;;;;;;;;;;;;;;18.49;62.35;101255.78;5029807;28;20495;-77
2022/07/31 04:12:47;;;;;;;;;;;;;;;18.52;62.23;101257.44;5032686;28;19929;-77
2022/07/31 04:15:13;;;;;;;;;;;;;;;18.48;62.36;101259.34;5033471;28;19932;-78
2022/07/31 04:17:38;;;;;;;;;;;;;;;18.54;62.24;101263.50;5027454;28;19936;-77
2022/07/31 04:20:04;;;;;;;;;;;;;;;18.51;62.27;101269.72;5047024;28;19933;-78
2022/07/31 04:22:29;;;;;;;;;;;;;;;18.51;62.69;101271.53;5025650;28;20008;-77
2022/07/31 04:24:54;;;;;;;;;;;;;;;18.49;61.98;101268.09;5024856;28;19936;-78
2022/07/31 04:27:20;;;;;;;;;;;;;;;18.53;62.31;101277.56;5045674;28;19921;-78
2022/07/31 04:29:45;;;;;;;;;;;;;;;18.55;62.20;101273.06;5025310;28;19921;-77
2022/07/31 04:32:11;;;;;;;;;;;;;;;18.57;62.19;101274.72;5026617;28;19921;-77
2022/07/31 04:34:36;;;;;;;;;;;;;;;18.56;62.12;101265.13;5029795;28;20305;-77
2022/07/31 04:37:02;;;;;;;;;;;;;;;18.56;62.24;101270.38;5021204;28;19933;-77
2022/07/31 04:39:27;;;;;;;;;;;;;;;18.58;62.45;101263.28;5031443;28;19925;-77
2022/07/31 04:41:53;;;;;;;;;;;;;;;18.57;62.54;101268.63;5029907;28;19924;-77
2022/07/31 04:44:19;;;;;;;;;;;;;;;18.59;62.64;101269.38;5026900;28;20717;-77
2022/07/31 04:46:44;;;;;;;;;;;;;;;18.57;62.05;101261.56;5029038;28;19925;-77
2022/07/31 04:49:13;;;;;;;;;;;;;;;18.57;62.20;101265.97;5048760;28;19986;-77
2022/07/31 04:51:39;;;;;;;;;;;;;;;18.61;62.22;101260.50;5023072;28;19943;-77
2022/07/31 04:54:05;;;;;;;;;;;;;;;18.63;62.67;101265.66;5004410;28;19929;-77
2022/07/31 04:56:34;;;;;;;;;;;;;;;18.65;62.19;101267.34;5029220;28;20293;-78
2022/07/31 04:59:01;;;;;;;;;;;;;;;18.66;62.51;101270.78;5021498;28;19925;-78
2022/07/31 05:01:26;;;;;;;;;;;;;;;18.67;62.67;101270.75;5008119;28;19925;-78
2022/07/31 05:03:52;;;;;;;;;;;;;;;18.66;62.40;101274.28;5028814;28;19925;-78
2022/07/31 05:06:17;;;;;;;;;;;;;;;18.68;62.36;101266.34;5032627;28;20301;-78
2022/07/31 05:08:43;;;;;;;;;;;;;;;18.68;62.78;101266.34;5029262;28;19917;-78
2022/07/31 05:11:23;;;;;;;;;;;;;;;18.67;62.98;101272.50;5011956;28;20071;-78
2022/07/31 05:13:53;;;;;;;;;;;;;;;18.69;62.86;101270.66;5010540;28;19933;-78
2022/07/31 05:16:19;;;;;;;;;;;;;;;18.72;62.92;101265.25;5028768;28;19925;-77
2022/07/31 05:18:44;;;;;;;;;;;;;;;18.73;63.44;101269.59;5031329;28;19932;-78
2022/07/31 05:21:10;;;;;;;;;;;;;;;18.72;62.93;101275.78;5030832;28;19921;-77
2022/07/31 05:23:36;;;;;;;;;;;;;;;18.73;63.09;101272.22;5030375;28;19979;-77
2022/07/31 05:26:01;;;;;;;;;;;;;;;18.70;63.15;101282.91;5030418;28;19957;-78
2022/07/31 05:28:27;;;;;;;;;;;;;;;18.73;63.24;101280.13;5030874;28;19928;-78
2022/07/31 05:30:52;;;;;;;;;;;;;;;18.74;62.83;101281.84;5028984;28;19925;-78
2022/07/31 05:33:17;;;;;;;;;;;;;;;18.73;62.57;101280.13;5032157;28;19948;-78
2022/07/31 05:35:42;;;;;;;;;;;;;;;18.76;62.65;101285.25;5034616;28;19921;-77
2022/07/31 05:38:08;;;;;;;;;;;;;;;18.75;63.00;101283.53;5017440;28;19932;-78
2022/07/31 05:40:33;;;;;;;;;;;;;;;18.80;63.12;101293.84;5035207;28;19924;-77
2022/07/31 05:42:58;;;;;;;;;;;;;;;18.79;63.49;101285.09;5037168;28;19928;-78
2022/07/31 05:45:24;;;;;;;;;;;;;;;18.81;63.28;101290.31;5031893;28;19929;-78
2022/07/31 05:47:49;;;;;;;;;;;;;;;18.84;63.10;101287.53;5009786;28;19917;-78
2022/07/31 05:50:14;;;;;;;;;;;;;;;18.86;62.71;101286.53;5042205;28;20334;-77
2022/07/31 05:52:40;;;;;;;;;;;;;;;18.89;62.93;101286.38;5026057;28;20468;-78
2022/07/31 05:55:05;;;;;;;;;;;;;;;18.90;62.89;101281.94;5024940;28;19932;-77
2022/07/31 05:57:31;;;;;;;;;;;;;;;18.94;62.52;101278.25;5027268;28;20233;-78
2022/07/31 05:59:56;;;;;;;;;;;;;;;18.95;62.48;101274.72;5026782;28;19921;-78
2022/07/31 06:02:21;;;;;;;;;;;;;;;18.95;62.78;101267.66;5022973;28;19925;-78
2022/07/31 06:04:46;;;;;;;;;;;;;;;18.97;62.46;101272.84;5033597;28;20385;-78
2022/07/31 06:07:12;;;;;;;;;;;;;;;19.00;62.41;101268.28;5026552;28;19932;-76
2022/07/31 06:09:37;;;;;;;;;;;;;;;19.07;62.29;101271.50;5013145;28;20298;-77
2022/07/31 06:12:02;;;;;;;;;;;;;;;19.07;62.04;101276.75;5029925;28;19970;-78
2022/07/31 06:14:28;;;;;;;;;;;;;;;19.04;61.66;101282.16;5013177;28;19933;-78
2022/07/31 06:16:53;;;;;;;;;;;;;;;19.08;61.33;101274.03;5029085;28;19925;-78
2022/07/31 06:19:19;;;;;;;;;;;;;;;19.09;60.76;101274.91;5030308;28;19936;-78
2022/07/31 06:21:44;;;;;;;;;;;;;;;19.11;60.54;101276.53;5031016;28;20008;-78
2022/07/31 06:24:10;;;;;;;;;;;;;;;19.17;60.31;101270.09;5027214;28;19936;-78
2022/07/31 06:26:35;;;;;;;;;;;;;;;19.19;60.26;101276.16;5032787;28;19928;-78
2022/07/31 06:29:01;;;;;;;;;;;;;;;19.21;60.21;101277.78;5030499;28;19968;-77
2022/07/31 06:31:26;;;;;;;;;;;;;;;19.22;59.53;101281.28;5029409;28;19925;-78
2022/07/31 06:33:51;;;;;;;;;;;;;;;19.23;59.11;101278.56;5025395;28;20416;-78
2022/07/31 06:36:17;;;;;;;;;;;;;;;19.24;58.44;101276.78;5013090;28;19928;-78
2022/07/31 06:38:43;;;;;;;;;;;;;;;19.24;58.15;101272.38;5030986;28;19920;-78
2022/07/31 06:41:08;;;;;;;;;;;;;;;19.28;58.24;101273.13;5031012;28;20309;-78
2022/07/31 06:43:33;;;;;;;;;;;;;;;19.28;58.45;101272.22;5027566;28;19925;-78
2022/07/31 06:45:59;;;;;;;;;;;;;;;19.31;58.35;101278.25;5024742;28;20409;-78
2022/07/31 06:48:24;;;;;;;;;;;;;;;19.33;58.40;101284.28;5021515;28;19929;-78
2022/07/31 06:50:49;;;;;;;;;;;;;;;19.36;58.45;101285.91;5024280;28;19909;-77
2022/07/31 06:53:14;;;;;;;;;;;;;;;19.34;58.04;101275.47;5021340;28;19952;-77
2022/07/31 06:55:40;;;;;;;;;;;;;;;19.36;56.99;101281.50;5026057;28;19921;-78
2022/07/31 06:58:05;;;;;;;;;;;;;;;19.37;56.36;101275.31;5029326;28;20046;-77
2022/07/31 07:00:31;;;;;;;;;;;;;;;19.39;56.46;101272.59;5032832;28;19990;-78
2022/07/31 07:02:56;;;;;;;;;;;;;;;19.38;56.68;101268.22;5054013;28;19921;-77
2022/07/31 07:05:21;;;;;;;;;;;;;;;19.37;55.97;101261.28;5017042;28;19928;-77
2022/07/31 07:07:47;;;;;;;;;;;;;;;19.37;55.93;101263.91;5028490;28;19994;-79
2022/07/31 07:10:12;;;;;;;;;;;;;;;19.38;55.87;101266.44;5044128;28;19925;-81
2022/07/31 07:12:37;;;;;;;;;;;;;;;19.41;55.94;101270.72;5025582;28;20463;-81
2022/07/31 07:15:03;;;;;;;;;;;;;;;19.43;55.79;101268.88;5042259;28;20488;-81
2022/07/31 07:17:28;;;;;;;;;;;;;;;19.39;55.83;101273.44;5016666;28;19921;-81
2022/07/31 07:19:54;;;;;;;;;;;;;;;19.42;55.63;101268.00;5029587;28;19978;-81
2022/07/31 07:22:19;;;;;;;;;;;;;;;19.43;55.81;101266.25;5023823;28;19921;-82
2022/07/31 07:24:47;;;;;;;;;;;;;;;19.42;55.85;101277.69;5021752;28;19936;-81
2022/07/31 07:27:12;;;;;;;;;;;;;;;19.45;56.26;101274.91;5023865;28;20008;-81
2022/07/31 07:29:37;;;;;;;;;;;;;;;19.46;56.32;101282.72;5023536;28;20600;-82
2022/07/31 07:32:03;;;;;;;;;;;;;;;19.48;56.56;101272.13;5022384;28;19921;-81
2022/07/31 07:34:28;;;;;;;;;;;;;;;19.50;57.38;101268.47;5033564;28;19929;-81
2022/07/31 07:36:54;;;;;;;;;;;;;;;19.51;57.85;101258.78;5048418;28;19964;-81
2022/07/31 07:39:19;;;;;;;;;;;;;;;19.50;56.70;101257.06;5029788;28;19921;-81
2022/07/31 07:41:44;;;;;;;;;;;;;;;19.49;57.20;101260.66;5029427;28;19944;-81
2022/07/31 07:44:10;;;;;;;;;;;;;;;19.47;57.32;101263.34;5028215;28;19968;-81
2022/07/31 07:46:35;;;;;;;;;;;;;;;19.47;56.63;101265.13;5023082;28;20817;-81
2022/07/31 07:49:01;;;;;;;;;;;;;;;19.48;56.51;101258.94;5024444;28;19956;-81
2022/07/31 07:51:27;;;;;;;;;;;;;;;19.49;56.78;101253.59;5025668;28;19929;-81
2022/07/31 07:53:52;;;;;;;;;;;;;;;19.49;56.09;101256.22;5034748;28;19953;-81
2022/07/31 07:56:19;;;;;;;;;;;;;;;19.48;56.13;101254.53;5040315;28;21306;-79
2022/07/31 07:58:45;;;;;;;;;;;;;;;19.47;56.12;101252.81;5024180;28;19925;-81
2022/07/31 08:01:11;;;;;;;;;;;;;;;19.51;56.37;101245.63;5026881;28;19952;-81
2022/07/31 08:03:36;;;;;;;;;;;;;;;19.51;56.95;101246.47;5027563;28;20305;-80
2022/07/31 08:06:01;;;;;;;;;;;;;;;19.53;56.72;101236.69;5020455;28;19917;-81
2022/07/31 08:08:26;;;;;;;;;;;;;;;19.55;56.67;101240.09;5024770;28;19932;-80
2022/07/31 08:10:52;;;;;;;;;;;;;;;19.55;56.36;101244.56;5019558;28;20043;-80
2022/07/31 08:13:17;;;;;;;;;;;;;;;19.57;57.26;101247.94;5030526;28;19999;-81
2022/07/31 08:15:42;;;;;;;;;;;;;;;19.55;56.38;101240.09;5024609;28;19925;-80
2022/07/31 08:18:08;;;;;;;;;;;;;;;19.55;57.16;101234.84;5023295;28;19925;-81
2022/07/31 08:20:35;;;;;;;;;;;;;;;19.58;56.99;101233.84;5030173;28;19921;-81
2022/07/31 08:23:00;;;;;;;;;;;;;;;19.58;56.65;101229.41;5006505;28;19925;-81
2022/07/31 08:25:26;;;;;;;;;;;;;;;19.62;55.97;101227.47;5025027;28;19978;-81
2022/07/31 08:27:51;;;;;;;;;;;;;;;19.62;56.00;101225.69;5022264;28;19945;-81
2022/07/31 08:30:16;;;;;;;;;;;;;;;19.68;56.31;101224.53;5005175;28;19925;-80
2022/07/31 08:32:41;;;;;;;;;;;;;;;19.73;55.87;101230.41;5028103;28;19932;-81
2022/07/31 08:35:07;;;;;;;;;;;;;;;19.71;56.28;101224.38;5028092;28;19921;-81
2022/07/31 08:37:32;;;;;;;;;;;;;;;19.75;56.01;101225.94;5046457;28;19945;-81
2022/07/31 08:39:58;;;;;;;;;;;;;;;19.73;55.98;101226.00;5029063;28;19932;-81
2022/07/31 08:42:24;;;;;;;;;;;;;;;19.80;56.04;101223.88;5029958;28;20498;-81
2022/07/31 08:44:49;;;;;;;;;;;;;;;19.82;56.16;101229.94;5024782;28;20004;-81
2022/07/31 08:47:15;;;;;;;;;;;;;;;19.87;56.48;101227.06;5030319;28;20341;-80
2022/07/31 08:49:44;;;;;;;;;;;;;;;19.82;56.45;101222.03;5030852;28;19980;-81
2022/07/31 08:52:15;;;;;;;;;;;;;;;19.78;56.84;101213.44;5028724;28;20012;-81
2022/07/31 08:54:45;;;;;;;;;;;;;;;19.98;55.86;101208.88;5026042;28;19932;-81
2022/07/31 08:57:11;;;;;;;;;;;;;;;19.88;56.05;101205.06;5029173;28;20355;-82
2022/07/31 08:59:37;;;;;;;;;;;;;;;19.88;56.19;101205.06;5028261;28;20561;-81
2022/07/31 09:02:03;;;;;;;;;;;;;;;19.87;56.45;101213.88;5030769;28;19925;-81
2022/07/31 09:04:30;;;;;;;;;;;;;;;19.84;55.97;101208.78;5027057;28;19933;-81
2022/07/31 09:06:58;;;;;;;;;;;;;;;19.93;56.82;101208.28;5047601;28;19937;-81
2022/07/31 09:09:24;;;;;;;;;;;;;;;19.96;55.92;101211.63;5015596;28;19932;-81
2022/07/31 09:11:50;;;;;;;;;;;;;;;19.99;55.75;101210.59;5058780;28;19925;-81
2022/07/31 09:14:34;;;;;;;;;;;;;;;19.98;56.19;101207.13;5043230;28;20003;-81
2022/07/31 09:17:00;;;;;;;;;;;;;;;19.88;56.36;101200.59;5030069;28;20511;-81
2022/07/31 09:19:36;;;;;;;;;;;;;;;19.98;56.19;101203.63;5029147;28;19931;-81
2022/07/31 09:22:02;;;;;;;;;;;;;;;20.03;55.46;101194.53;5031548;28;19921;-81
2022/07/31 09:24:28;;;;;;;;;;;;;;;20.19;55.30;101194.59;5041071;28;19924;-80
2022/07/31 09:27:08;;;;;;;;;;;;;;;20.28;55.28;101205.50;5038164;28;20004;-81
2022/07/31 09:29:34;;;;;;;;;;;;;;;20.35;54.88;101198.94;5033946;28;19921;-81
2022/07/31 09:32:28;;;;;;;;;;;;;;;20.17;55.85;101199.09;5029412;28;19925;-83
2022/07/31 09:35:05;;;;;;;;;;;;;;;20.14;55.74;101191.38;5049082;28;19937;-82
2022/07/31 09:37:30;;;;;;;;;;;;;;;20.18;56.33;101198.16;5036948;28;19921;-81
2022/07/31 09:39:55;;;;;;;;;;;;;;;20.16;56.55;101189.47;5035890;28;19928;-82
2022/07/31 09:42:21;;;;;;;;;;;;;;;20.35;54.38;101188.38;5034869;28;19925;-82
2022/07/31 09:44:49;;;;;;;;;;;;;;;20.40;54.74;101197.84;5047166;28;19929;-82
2022/07/31 09:47:26;;;;;;;;;;;;;;;20.55;54.35;101191.72;5026918;28;19925;-83
2022/07/31 09:49:57;;;;;;;;;;;;;;;20.41;54.33;101187.22;5028773;28;19979;-82
2022/07/31 09:52:23;;;;;;;;;;;;;;;20.38;55.18;101189.19;5020908;28;19925;-82
2022/07/31 09:54:59;;;;;;;;;;;;;;;20.38;54.88;101189.19;5003911;28;19980;-82
2022/07/31 09:57:24;;;;;;;;;;;;;;;20.68;53.99;101184.81;5029089;28;19995;-82
2022/07/31 09:59:50;;;;;;;;;;;;;;;20.44;55.08;101183.56;5047808;28;19932;-81
2022/07/31 10:02:17;;;;;;;;;;;;;;;20.66;53.94;101182.25;5020934;28;19931;-82
2022/07/31 10:04:43;;;;;;;;;;;;;;;20.50;52.73;101176.13;5025087;28;19953;-82
2022/07/31 10:07:09;;;;;;;;;;;;;;;20.61;53.49;101181.69;5013595;28;20322;-82
2022/07/31 10:09:38;;;;;;;;;;;;;;;20.37;55.84;101188.31;5030576;28;19929;-82
2022/07/31 10:12:04;;;;;;;;;;;;;;;20.52;53.84;101186.63;5022266;28;19917;-82
2022/07/31 10:14:34;;;;;;;;;;;;;;;20.70;53.38;101190.88;5024860;28;19937;-82
2022/07/31 10:17:03;;;;;;;;;;;;;;;20.92;52.98;101188.72;5038872;28;19925;-82
2022/07/31 10:19:31;;;;;;;;;;;;;;;20.92;53.51;101172.06;5042153;28;19921;-82
2022/07/31 10:22:00;;;;;;;;;;;;;;;20.93;52.47;101187.81;5045806;28;19932;-82
2022/07/31 10:24:27;;;;;;;;;;;;;;;20.97;52.43;101186.69;5030304;28;19932;-82
2022/07/31 10:26:55;;;;;;;;;;;;;;;20.87;52.03;101183.72;5026987;28;19921;-82
2022/07/31 10:29:21;;;;;;;;;;;;;;;20.99;51.96;101181.31;5024530;28;20361;-82
2022/07/31 10:31:47;;;;;;;;;;;;;;;20.96;52.75;101179.72;5042640;28;19925;-83
2022/07/31 10:34:15;;;;;;;;;;;;;;;20.96;53.40;101174.44;5026740;28;19935;-83
2022/07/31 10:36:42;;;;;;;;;;;;;;;21.01;52.48;101171.50;5029712;28;20402;-83
2022/07/31 10:39:27;;;;;;;;;;;;;;;20.98;53.01;101166.41;5007857;28;20326;-83
2022/07/31 10:42:05;;;;;;;;;;;;;;;20.93;53.24;101155.25;5032531;28;19974;-83
2022/07/31 10:44:34;;;;;;;;;;;;;;;21.01;53.26;101156.50;5030096;28;19925;-83
2022/07/31 10:47:10;;;;;;;;;;;;;;;21.16;53.66;101154.75;5006834;28;19929;-83
2022/07/31 10:49:40;;;;;;;;;;;;;;;21.10;53.84;101169.19;5023126;28;19921;-84
2022/07/31 10:52:05;;;;;;;;;;;;;;;20.95;54.63;101162.16;5040574;28;19929;-83
2022/07/31 10:54:37;;;;;;;;;;;;;;;21.04;54.05;101158.13;5037184;28;21635;-83
2022/07/31 10:57:02;;;;;;;;;;;;;;;21.04;53.60;101153.69;5034136;28;19924;-83
2022/07/31 10:59:28;;;;;;;;;;;;;;;20.97;53.79;101151.50;5036193;28;19917;-83
2022/07/31 11:01:54;;;;;;;;;;;;;;;20.78;54.86;101152.53;5044660;28;19925;-83
2022/07/31 11:04:30;;;;;;;;;;;;;;;20.88;54.43;101139.69;5005484;28;20136;-83
2022/07/31 11:06:56;;;;;;;;;;;;;;;20.94;55.01;101144.63;5039486;28;20006;-83
2022/07/31 11:09:26;;;;;;;;;;;;;;;20.81;54.53;101136.50;5024114;28;20510;-84
2022/07/31 11:11:52;;;;;;;;;;;;;;;20.64;55.04;101141.91;5040483;28;19932;-83
2022/07/31 11:14:17;;;;;;;;;;;;;;;20.76;54.68;101146.50;5038494;28;19920;-83
2022/07/31 11:16:50;;;;;;;;;;;;;;;20.64;55.52;101144.56;5019120;28;19928;-83
2022/07/31 11:19:16;;;;;;;;;;;;;;;21.03;53.79;101140.59;5050512;28;19929;-83
2022/07/31 11:21:41;;;;;;;;;;;;;;;20.86;53.42;101144.19;5039641;28;19925;-83
2022/07/31 11:24:21;;;;;;;;;;;;;;;20.71;54.43;101148.53;5029257;28;19924;-83
2022/07/31 11:26:56;;;;;;;;;;;;;;;20.96;53.40;101144.50;5046141;28;19991;-83
2022/07/31 11:29:30;;;;;;;;;;;;;;;20.72;53.92;101138.81;5015608;28;20400;-83
2022/07/31 11:31:59;;;;;;;;;;;;;;;20.63;55.05;101134.06;5034506;28;19935;-83
2022/07/31 11:34:25;;;;;;;;;;;;;;;20.93;52.78;101134.13;5034860;28;19936;-83
2022/07/31 11:36:50;;;;;;;;;;;;;;;20.97;51.39;101136.53;5055230;28;20547;-83
2022/07/31 11:39:16;;;;;;;;;;;;;;;20.98;51.83;101132.91;5036327;28;19963;-83
2022/07/31 11:41:41;;;;;;;;;;;;;;;20.79;53.14;101125.19;5031295;28;19936;-83
2022/07/31 11:44:07;;;;;;;;;;;;;;;21.03;53.74;101124.75;5041770;28;20545;-83
2022/07/31 11:46:33;;;;;;;;;;;;;;;21.11;50.91;101126.00;5041397;28;19960;-83
2022/07/31 11:49:00;;;;;;;;;;;;;;;21.19;50.29;101130.81;5034016;28;19925;-83
2022/07/31 11:51:26;;;;;;;;;;;;;;;21.31;48.10;101120.34;5009005;28;20444;-84
2022/07/31 11:53:54;;;;;;;;;;;;;;;21.41;47.90;101121.53;5029507;28;19959;-83
2022/07/31 11:56:19;;;;;;;;;;;;;;;21.56;46.40;101124.16;5032870;28;19925;-83
2022/07/31 11:58:49;;;;;;;;;;;;;;;21.61;46.14;101116.84;5049290;28;19994;-83
2022/07/31 12:01:15;;;;;;;;;;;;;;;21.11;50.84;101125.13;5028901;28;19921;-82
2022/07/31 12:03:41;;;;;;;;;;;;;;;21.57;47.60;101121.41;5030033;28;19947;-83
2022/07/31 12:06:07;;;;;;;;;;;;;;;21.34;49.31;101117.53;5044968;28;19916;-83
2022/07/31 12:08:35;;;;;;;;;;;;;;;21.00;52.34;101123.13;5037657;28;20396;-83
2022/07/31 12:11:03;;;;;;;;;;;;;;;21.34;50.47;101116.69;5029962;28;19970;-83
2022/07/31 12:13:29;;;;;;;;;;;;;;;21.40;49.21;101113.66;4997162;28;20578;-83
2022/07/31 12:15:56;;;;;;;;;;;;;;;21.54;48.90;101110.22;5031805;28;19949;-83
2022/07/31 12:18:21;;;;;;;;;;;;;;;21.36;49.70;101115.63;5029896;28;19996;-83
2022/07/31 12:20:58;;;;;;;;;;;;;;;21.49;50.17;101113.13;5027889;28;20429;-83
2022/07/31 12:23:24;;;;;;;;;;;;;;;21.42;50.36;101111.81;5032881;28;19925;-83
2022/07/31 12:25:50;;;;;;;;;;;;;;;21.47;50.58;101108.88;5028124;28;19971;-83
2022/07/31 12:28:16;;;;;;;;;;;;;;;21.72;49.08;101117.00;5051550;28;19931;-84
2022/07/31 12:30:42;;;;;;;;;;;;;;;21.64;49.76;101111.34;5039429;28;19924;-83
2022/07/31 12:33:08;;;;;;;;;;;;;;;21.27;51.25;101104.78;5041222;28;19925;-83